Time;durP1;ratioP1;P1;durP2;ratioP2;P2;SDS_P1;SDS_P2;PMS_P1;PMS_P2;Temp;Humidity;BMP_temperature;BMP_pressure;BME280_temperature;BME280_humidity;BME280_pressure;Samples;Min_cycle;Max_cycle;Signal;HPM_P1;HPM_P2
2021/06/27 00:02:35;;;;;;;10.00;9.10;;;13.20;1.40;;;;;;646127;216;42176;-73
2021/06/27 00:05:16;;;;;;;9.73;8.83;;;13.10;1.40;;;;;;619702;222;42750;-72
2021/06/27 00:08:01;;;;;;;10.10;9.20;;;13.10;1.40;;;;;;647128;212;32973;-72
2021/06/27 00:10:42;;;;;;;10.00;9.05;;;13.10;1.40;;;;;;651026;216;31581;-72
2021/06/27 00:13:26;;;;;;;9.50;8.50;;;13.10;1.40;;;;;;645655;216;31615;-72
2021/06/27 00:16:07;;;;;;;9.40;8.50;;;13.10;1.40;;;;;;647278;216;42192;-72
2021/06/27 00:18:48;;;;;;;8.80;7.90;;;13.10;1.40;;;;;;646746;216;42403;-73
2021/06/27 00:21:29;;;;;;;9.90;8.20;;;13.00;1.40;;;;;;649550;216;32500;-71
2021/06/27 00:24:10;;;;;;;9.73;8.82;;;12.90;1.40;;;;;;646549;216;31587;-73
2021/06/27 00:26:51;;;;;;;9.27;8.37;;;12.80;1.40;;;;;;646617;212;42208;-72
2021/06/27 00:29:32;;;;;;;9.93;9.13;;;12.80;1.40;;;;;;645008;216;31574;-73
2021/06/27 00:32:13;;;;;;;9.90;8.90;;;12.80;1.40;;;;;;647244;216;31581;-72
2021/06/27 00:35:51;;;;;;;9.85;9.00;;;12.70;1.40;;;14.31;100.00;95419.50;649967;213;31628;-71
2021/06/27 00:38:36;;;;;;;10.60;9.60;;;12.70;1.40;;;14.30;100.00;95422.75;648391;216;31663;-71
2021/06/27 00:41:18;;;;;;;10.25;9.25;;;12.80;1.40;;;14.35;100.00;95422.42;623499;222;32262;-72
2021/06/27 00:43:59;;;;;;;9.77;8.88;;;12.80;1.40;;;14.43;100.00;95423.61;644992;212;42248;-72
2021/06/27 00:46:41;;;;;;;9.50;8.70;;;12.70;1.40;;;14.36;100.00;95427.06;616512;222;31913;-72
2021/06/27 00:49:23;;;;;;;10.10;9.20;;;12.70;1.40;;;14.29;100.00;95425.69;647497;216;31573;-72
2021/06/27 00:52:05;;;;;;;8.53;7.73;;;12.70;1.40;;;14.17;100.00;95425.61;649424;212;31765;-73
2021/06/27 00:54:49;;;;;;;7.50;6.70;;;12.50;1.40;;;13.91;100.00;95428.44;646963;212;31641;-72
2021/06/27 00:57:31;;;;;;;7.43;6.82;;;12.40;1.40;;;13.73;100.00;95425.34;647252;212;31829;-71
2021/06/27 01:00:14;;;;;;;8.77;7.05;;;12.20;1.40;;;13.64;100.00;95428.52;648824;212;42194;-72
2021/06/27 01:02:56;;;;;;;7.87;7.07;;;12.10;1.40;;;13.56;100.00;95420.28;618834;222;31941;-72
2021/06/27 01:05:38;;;;;;;9.20;7.80;;;12.00;1.40;;;13.70;100.00;95425.48;647548;216;31562;-73
2021/06/27 01:08:19;;;;;;;8.18;7.40;;;12.00;1.40;;;13.67;100.00;95420.80;647250;216;34933;-71
2021/06/27 01:11:01;;;;;;;9.40;8.50;;;12.00;1.40;;;13.67;100.00;95425.59;649405;212;31584;-71
2021/06/27 01:13:42;;;;;;;9.00;8.20;;;12.00;1.40;;;13.64;100.00;95429.67;648413;212;31584;-73
2021/06/27 01:16:24;;;;;;;9.40;8.50;;;12.20;1.40;;;13.69;100.00;95430.81;645246;212;31557;-71
2021/06/27 01:19:06;;;;;;;9.33;8.43;;;12.20;1.40;;;13.70;100.00;95430.88;646679;216;31566;-72
2021/06/27 01:21:51;;;;;;;10.10;9.20;;;12.30;1.40;;;13.79;100.00;95425.06;647653;212;31584;-72
2021/06/27 01:24:33;;;;;;;10.60;9.20;;;12.30;1.40;;;13.80;100.00;95423.87;645633;216;42223;-72
2021/06/27 01:27:14;;;;;;;10.80;8.87;;;12.30;1.40;;;13.86;100.00;95413.54;648395;216;42239;-72
2021/06/27 01:29:59;;;;;;;9.70;8.87;;;12.40;1.40;;;13.82;100.00;95417.64;646750;216;43220;-71
2021/06/27 01:32:41;;;;;;;10.20;8.93;;;12.30;1.40;;;13.87;100.00;95418.14;648355;212;32173;-72
2021/06/27 01:35:51;;;;;;;8.90;8.10;;;12.30;1.40;;;13.78;100.00;95417.52;645989;216;31773;-72
2021/06/27 01:38:35;;;;;;;10.93;9.93;;;12.20;1.40;;;13.79;100.00;95414.73;647151;212;32378;-71
2021/06/27 01:41:17;;;;;;;10.00;9.10;;;12.30;1.40;;;13.78;100.00;95417.98;647157;212;31603;-72
2021/06/27 01:43:58;;;;;;;10.00;9.10;;;12.20;1.40;;;13.76;100.00;95418.60;645491;212;32282;-72
2021/06/27 01:46:40;;;;;;;10.00;9.10;;;12.30;1.40;;;13.81;100.00;95427.51;644903;212;32464;-71
2021/06/27 01:49:21;;;;;;;8.20;7.50;;;12.20;1.40;;;13.81;100.00;95420.31;648702;212;32467;-73
2021/06/27 01:52:03;;;;;;;8.93;8.13;;;12.10;1.40;;;13.76;100.00;95417.73;618721;226;31901;-72
2021/06/27 01:54:45;;;;;;;9.40;8.50;;;12.20;1.40;;;13.72;100.00;95415.47;646055;216;32169;-72
2021/06/27 01:57:27;;;;;;;9.30;8.50;;;12.20;1.40;;;13.60;100.00;95417.98;647404;216;42810;-71
2021/06/27 02:00:09;;;;;;;9.25;8.45;;;12.10;1.40;;;13.54;100.00;95419.95;648346;216;42739;-72
2021/06/27 02:02:51;;;;;;;9.23;8.32;;;12.00;1.40;;;13.46;100.00;95420.66;645948;216;31566;-72
2021/06/27 02:05:33;;;;;;;9.25;8.45;;;11.90;1.40;;;13.47;100.00;95421.41;647405;216;31573;-73
2021/06/27 02:08:19;;;;;;;8.77;7.97;;;11.80;1.40;;;13.43;100.00;95417.66;652153;216;32893;-73
2021/06/27 02:11:02;;;;;;;8.60;7.70;;;11.80;1.40;;;13.41;100.00;95422.64;648647;212;31581;-72
2021/06/27 02:13:44;;;;;;;7.70;7.00;;;11.90;1.40;;;13.40;100.00;95426.00;646780;216;42178;-72
2021/06/27 02:16:28;;;;;;;8.50;7.70;;;11.90;1.40;;;13.27;100.00;95426.23;648537;216;31634;-72
2021/06/27 02:19:10;;;;;;;8.80;8.00;;;11.80;1.40;;;13.22;100.00;95421.93;648656;216;31585;-72
2021/06/27 02:21:55;;;;;;;9.30;8.40;;;11.80;1.40;;;13.23;100.00;95418.52;650008;212;31637;-73
2021/06/27 02:24:36;;;;;;;9.90;8.90;;;11.80;1.40;;;13.11;100.00;95419.52;646738;216;42205;-72
2021/06/27 02:27:21;;;;;;;9.57;8.67;;;11.70;1.40;;;13.10;100.00;95422.59;650023;216;31640;-72
2021/06/27 02:30:03;;;;;;;9.17;8.20;;;11.60;1.40;;;13.09;100.00;95420.70;621577;223;42825;-73
2021/06/27 02:32:45;;;;;;;9.17;8.27;;;11.60;1.40;;;13.04;100.00;95421.16;648739;216;31596;-72
2021/06/27 02:35:54;;;;;;;9.18;8.25;;;11.50;1.40;;;13.03;100.00;95424.21;645628;216;31757;-73
2021/06/27 02:38:36;;;;;;;9.83;8.23;;;11.50;1.40;;;12.99;100.00;95429.28;646704;216;31658;-72
2021/06/27 02:41:18;;;;;;;9.03;8.17;;;11.40;1.40;;;12.93;100.00;95434.25;649492;216;32018;-72
2021/06/27 02:44:00;;;;;;;9.82;8.80;;;11.40;1.40;;;12.92;100.00;95439.28;647104;216;31702;-71
2021/06/27 02:46:42;;;;;;;8.17;7.37;;;11.30;1.40;;;12.89;100.00;95445.14;648111;212;31956;-73
2021/06/27 02:49:23;;;;;;;8.70;7.80;;;11.30;1.40;;;12.88;100.00;95446.34;645496;216;32061;-72
2021/06/27 02:52:08;;;;;;;7.72;7.03;;;11.20;1.40;;;12.93;100.00;95446.28;645902;216;31617;-73
2021/06/27 02:54:50;;;;;;;9.37;8.23;;;11.20;1.40;;;13.04;100.00;95442.06;645274;212;42186;-72
2021/06/27 02:57:32;;;;;;;10.17;7.50;;;11.50;1.40;;;13.08;100.00;95436.20;647039;216;42207;-72
2021/06/27 03:00:14;;;;;;;7.93;7.03;;;11.40;1.40;;;12.83;100.00;95441.53;620178;226;31952;-72
2021/06/27 03:02:59;;;;;;;7.10;6.50;;;11.20;1.40;;;12.30;100.00;95435.97;644963;212;31948;-72
2021/06/27 03:05:40;;;;;;;7.28;6.57;;;10.90;1.40;;;12.27;100.00;95431.88;646776;212;32033;-71
2021/06/27 03:08:22;;;;;;;8.68;7.78;;;10.90;1.40;;;12.40;100.00;95432.19;651882;216;31564;-73
2021/06/27 03:11:04;;;;;;;8.20;7.40;;;11.00;1.40;;;12.41;100.00;95424.83;648017;216;31590;-72
2021/06/27 03:13:46;;;;;;;8.23;7.43;;;11.10;1.40;;;12.43;100.00;95417.79;646887;216;31549;-71
2021/06/27 03:16:27;;;;;;;8.47;7.60;;;11.10;1.40;;;12.44;100.00;95418.80;647979;212;31632;-72
2021/06/27 03:19:14;;;;;;;8.40;7.63;;;11.10;1.40;;;12.52;100.00;95414.95;646731;216;31608;-72
2021/06/27 03:21:54;;;;;;;8.10;7.40;;;11.40;1.40;;;12.54;100.00;95416.94;618810;226;31902;-73
2021/06/27 03:24:35;;;;;;;8.53;7.70;;;11.40;1.40;;;12.62;100.00;95415.80;646885;216;31587;-72
2021/06/27 03:27:19;;;;;;;8.50;7.70;;;11.40;1.40;;;12.74;100.00;95401.09;648759;216;31566;-72
2021/06/27 03:29:59;;;;;;;8.40;7.60;;;11.40;1.40;;;12.77;100.00;95399.95;644446;216;31443;-72
2021/06/27 03:32:40;;;;;;;8.70;7.90;;;11.40;1.40;;;12.76;100.00;95402.23;630373;221;31744;-73
2021/06/27 03:35:51;;;;;;;8.02;7.32;;;11.40;1.40;;;12.79;100.00;95394.62;646858;212;31608;-72
2021/06/27 03:38:47;;;;;;;8.00;7.20;;;11.40;1.40;;;12.84;100.00;95398.50;620039;226;34975;-72
2021/06/27 03:41:24;;;;;;;7.33;6.73;;;11.30;1.40;;;13.00;100.00;95395.13;647464;216;31559;-70
2021/06/27 03:44:08;;;;;;;7.83;7.13;;;11.40;1.40;;;13.04;100.00;95391.31;647438;216;31586;-71
2021/06/27 03:46:49;;;;;;;7.30;6.70;;;11.40;1.40;;;12.98;100.00;95387.56;646742;216;31590;-72
2021/06/27 03:49:31;;;;;;;6.33;5.70;;;11.40;1.40;;;12.93;100.00;95380.55;618900;222;31947;-72
2021/06/27 03:52:13;;;;;;;6.50;5.90;;;11.30;1.40;;;12.96;100.00;95385.19;645783;207;31590;-72
2021/06/27 03:54:54;;;;;;;6.67;6.17;;;11.20;1.40;;;12.83;100.00;95382.92;646017;212;31605;-72
2021/06/27 03:57:36;;;;;;;8.03;6.40;;;11.10;1.40;;;12.81;100.00;95388.03;647310;213;31559;-73
2021/06/27 04:00:18;;;;;;;7.80;6.00;;;11.10;1.40;;;12.73;100.00;95390.92;645094;212;31550;-72
2021/06/27 04:03:03;;;;;;;6.40;5.80;;;11.10;1.40;;;12.39;100.00;95395.25;647667;212;31537;-72
2021/06/27 04:05:45;;;;;;;6.67;6.07;;;11.10;1.40;;;12.32;100.00;95398.16;643299;212;42188;-72
2021/06/27 04:08:26;;;;;;;5.97;5.47;;;11.10;1.40;;;12.36;100.00;95397.55;646773;216;31519;-74
2021/06/27 04:11:08;;;;;;;7.00;5.30;;;11.10;1.40;;;12.40;100.00;95400.22;620114;226;31922;-72
2021/06/27 04:13:50;;;;;;;5.53;5.03;;;11.10;1.40;;;12.52;100.00;95398.62;648311;216;42380;-72
2021/06/27 04:16:33;;;;;;;5.50;5.00;;;11.20;1.40;;;12.51;100.00;95396.50;646869;212;31588;-71
2021/06/27 04:19:13;;;;;;;5.03;4.62;;;11.30;1.40;;;12.65;100.00;95398.91;646072;212;31586;-71
2021/06/27 04:21:55;;;;;;;5.90;4.70;;;11.40;1.40;;;12.87;100.00;95398.89;644561;216;32320;-72
2021/06/27 04:24:37;;;;;;;5.60;5.10;;;11.50;1.40;;;13.14;100.00;95404.48;647813;212;32114;-71
2021/06/27 04:27:18;;;;;;;5.30;4.80;;;11.70;1.40;;;13.23;100.00;95407.04;647704;216;31571;-72
2021/06/27 04:30:03;;;;;;;5.57;4.80;;;11.80;1.40;;;13.27;100.00;95400.59;649683;216;32076;-72
2021/06/27 04:32:45;;;;;;;5.27;4.77;;;11.90;1.40;;;13.34;100.00;95399.19;648079;212;42180;-72
2021/06/27 04:35:54;;;;;;;5.47;4.97;;;12.00;1.40;;;13.46;100.00;95394.80;647673;212;31594;-73
2021/06/27 04:38:35;;;;;;;5.37;4.87;;;12.10;1.40;;;13.67;100.00;95391.17;645241;216;42771;-72
2021/06/27 04:41:17;;;;;;;5.80;4.30;;;12.20;1.40;;;13.79;100.00;95384.56;648215;216;31666;-73
2021/06/27 04:43:59;;;;;;;4.60;4.30;;;12.30;1.40;;;13.82;100.00;95382.12;620652;222;32218;-72
2021/06/27 04:46:41;;;;;;;5.00;4.50;;;12.30;1.40;;;14.01;100.00;95381.09;647366;216;32070;-72
2021/06/27 04:49:22;;;;;;;5.10;4.60;;;12.50;1.40;;;14.28;100.00;95376.50;644846;216;31706;-72
2021/06/27 04:54:38;;;;;;;4.10;3.70;;;13.00;1.40;;;14.80;100.00;95382.08;645967;216;31619;-72
2021/06/27 04:57:20;;;;;;;4.10;3.80;;;13.20;1.40;;;15.16;100.00;95384.63;648191;216;31609;-72
2021/06/27 05:00:02;;;;;;;4.10;3.43;;;13.40;1.40;;;15.13;100.00;95385.45;619833;226;32084;-73
2021/06/27 05:02:46;;;;;;;5.20;3.90;;;13.60;1.40;;;15.32;100.00;95382.48;647459;216;32126;-72
2021/06/27 05:05:28;;;;;;;4.30;3.90;;;13.70;1.40;;;15.27;100.00;95379.39;647528;212;31597;-72
2021/06/27 05:08:10;;;;;;;4.30;3.70;;;13.80;1.40;;;15.85;100.00;95379.00;645978;212;31808;-72
2021/06/27 05:10:51;;;;;;;3.90;3.50;;;14.00;1.40;;;16.06;100.00;95383.22;648152;216;31671;-72
2021/06/27 05:13:36;;;;;;;3.80;3.50;;;14.20;1.40;;;16.42;100.00;95378.08;647839;216;31525;-73
2021/06/27 05:16:18;;;;;;;3.20;3.00;;;14.50;1.40;;;16.67;100.00;95378.86;646727;212;39237;-73
2021/06/27 05:18:59;;;;;;;3.60;3.30;;;14.80;1.40;;;16.68;100.00;95378.20;646665;212;31587;-72
2021/06/27 05:21:41;;;;;;;3.50;3.20;;;14.90;1.40;;;16.76;100.00;95371.52;647238;216;42231;-73
2021/06/27 05:24:23;;;;;;;2.80;2.50;;;15.00;1.40;;;16.91;100.00;95374.16;645837;216;31565;-72
2021/06/27 05:27:05;;;;;;;2.62;2.40;;;15.10;1.40;;;17.12;99.84;95370.88;646325;212;42199;-72
2021/06/27 05:29:47;;;;;;;2.40;2.10;;;15.30;1.40;;;17.26;94.80;95369.34;650177;216;31646;-73
2021/06/27 05:32:35;;;;;;;3.00;2.70;;;15.40;1.40;;;17.88;100.00;95379.27;647296;216;32299;-76
2021/06/27 05:35:52;;;;;;;3.10;2.58;;;15.80;1.40;;;18.11;99.61;95389.23;647233;212;31578;-72
2021/06/27 05:38:34;;;;;;;3.08;2.50;;;16.00;1.40;;;17.93;94.83;95388.38;644743;212;31517;-72
2021/06/27 05:41:16;;;;;;;2.90;2.70;;;15.90;1.40;;;17.65;99.12;95382.46;648085;212;31685;-72
2021/06/27 05:44:00;;;;;;;2.87;2.67;;;15.80;1.40;;;17.86;98.83;95377.83;645847;215;32322;-72
2021/06/27 05:46:42;;;;;;;2.87;2.67;;;15.90;1.40;;;17.70;94.84;95377.39;645757;216;31675;-76
2021/06/27 05:49:24;;;;;;;2.10;1.90;;;16.00;1.40;;;17.73;89.88;95381.84;646501;213;31516;-72
2021/06/27 05:52:08;;;;;;;1.73;1.62;;;16.00;1.40;;;17.58;86.89;95385.11;645269;216;31564;-73
2021/06/27 05:54:50;;;;;;;1.90;1.80;;;16.00;1.40;;;17.58;87.55;95386.05;648421;212;31817;-74
2021/06/27 05:57:35;;;;;;;1.70;1.60;;;16.00;1.40;;;17.82;85.32;95383.76;647775;212;31615;-75
2021/06/27 06:00:17;;;;;;;1.90;1.80;;;16.20;1.40;;;18.04;84.02;95383.58;650098;212;31874;-74
2021/06/27 06:02:58;;;;;;;1.98;1.80;;;16.40;1.40;;;17.87;83.65;95387.09;647173;216;31562;-73
2021/06/27 06:05:40;;;;;;;1.70;1.60;;;16.50;1.40;;;18.65;85.67;95381.21;619012;226;31877;-74
2021/06/27 06:08:25;;;;;;;2.62;1.90;;;16.80;1.40;;;19.23;83.77;95386.52;647098;213;31513;-74
2021/06/27 06:11:07;;;;;;;2.12;2.00;;;17.00;1.40;;;19.27;82.29;95385.18;644679;212;31544;-72
2021/06/27 06:13:48;;;;;;;1.60;1.50;;;17.20;1.40;;;19.87;83.06;95385.00;647581;216;31794;-73
2021/06/27 06:16:30;;;;;;;2.80;1.70;;;17.60;1.40;;;19.92;81.06;95393.02;647623;212;31574;-73
2021/06/27 06:19:11;;;;;;;1.60;1.50;;;17.70;1.40;;;20.19;81.93;95395.27;648752;212;31520;-72
2021/06/27 06:21:53;;;;;;;1.77;1.40;;;17.80;1.40;;;20.14;78.22;95397.82;650533;212;31541;-73
2021/06/27 06:24:38;;;;;;;1.70;1.60;;;17.70;1.40;;;20.78;80.43;95401.05;645432;216;42889;-72
2021/06/27 06:27:20;;;;;;;1.90;1.70;;;18.10;1.40;;;21.22;77.70;95398.98;645836;212;33122;-73
2021/06/27 06:30:01;;;;;;;1.60;1.50;;;18.40;1.40;;;21.83;78.87;95403.84;645279;212;31691;-72
2021/06/27 06:32:45;;;;;;;2.30;1.80;;;18.70;1.40;;;21.78;73.98;95401.09;646048;216;32088;-72
2021/06/27 06:35:51;;;;;;;1.80;1.70;;;18.90;1.40;;;21.42;73.37;95402.92;647136;212;31665;-72
2021/06/27 06:38:35;;;;;;;1.50;1.40;;;18.70;1.40;;;21.44;75.35;95400.12;645446;216;33162;-73
2021/06/27 06:41:22;;;;;;;1.60;1.50;;;18.60;1.40;;;21.47;74.67;95398.06;645761;212;31617;-73
2021/06/27 06:44:04;;;;;;;1.90;1.65;;;18.70;1.40;;;21.84;76.89;95400.06;648286;216;31552;-73
2021/06/27 06:46:46;;;;;;;2.30;1.87;;;18.80;1.40;;;21.88;74.60;95404.98;643968;216;31564;-73
2021/06/27 06:49:37;;;;;;;3.50;1.80;;;18.70;1.40;;;21.70;75.56;95408.45;647359;216;31818;-74
2021/06/27 06:52:22;;;;;;;1.90;1.80;;;18.80;1.40;;;21.85;75.33;95408.09;647816;212;31534;-73
2021/06/27 06:57:40;;;;;;;1.90;1.80;;;19.00;1.40;;;21.70;75.43;95404.89;619117;226;31930;-72
2021/06/27 07:00:22;;;;;;;2.45;2.10;;;19.00;1.40;;;21.41;75.10;95404.84;646717;216;31571;-73
2021/06/27 07:03:04;;;;;;;2.20;2.00;;;18.90;1.40;;;21.73;75.15;95404.61;648955;212;31540;-72
2021/06/27 07:05:46;;;;;;;2.20;1.70;;;19.00;1.40;;;22.36;73.85;95405.26;619604;226;31955;-72
2021/06/27 07:08:28;;;;;;;2.20;2.00;;;19.30;1.40;;;21.74;75.94;95408.58;619250;222;42528;-72
2021/06/27 07:11:16;;;;;;;2.00;1.62;;;19.20;1.40;;;22.24;72.29;95408.44;620805;226;32547;-72
2021/06/27 07:14:00;;;;;;;2.17;1.80;;;19.20;1.40;;;21.99;72.62;95403.80;646030;212;31564;-73
2021/06/27 07:16:50;;;;;;;2.40;2.03;;;19.20;1.40;;;21.63;76.64;95406.09;646682;216;31592;-73
2021/06/27 07:19:34;;;;;;;2.05;1.70;;;19.20;1.40;;;21.58;73.80;95408.77;646173;216;31898;-72
2021/06/27 07:22:18;;;;;;;2.50;1.85;;;19.10;1.40;;;21.82;75.63;95409.37;620612;222;32204;-73
2021/06/27 07:24:59;;;;;;;2.03;1.67;;;19.20;1.40;;;21.67;77.37;95393.17;646692;212;32138;-73
2021/06/27 07:27:47;;;;;;;2.28;2.08;;;19.20;1.40;;;21.82;73.91;95388.55;647186;216;31557;-73
2021/06/27 07:30:29;;;;;;;3.28;1.77;;;19.30;1.40;;;21.82;75.03;95387.17;647375;216;31561;-73
2021/06/27 07:35:57;;;;;;;1.43;1.30;;;19.70;1.40;;;22.09;71.95;95381.48;649640;216;31600;-72
2021/06/27 07:38:45;;;;;;;1.70;1.60;;;19.80;1.40;;;22.18;74.50;95378.56;646231;212;31779;-73
2021/06/27 07:41:32;;;;;;;1.50;1.40;;;19.90;1.40;;;22.02;74.56;95379.44;646012;216;42176;-70
2021/06/27 07:44:14;;;;;;;1.40;1.30;;;19.90;1.40;;;22.19;73.61;95379.50;651744;216;42190;-70
2021/06/27 07:46:59;;;;;;;1.40;1.30;;;20.10;1.40;;;22.29;73.67;95374.84;645805;216;31653;-71
2021/06/27 07:49:41;;;;;;;1.50;1.40;;;20.30;1.40;;;22.46;73.81;95371.20;648692;212;42157;-69
2021/06/27 07:52:22;;;;;;;1.90;1.40;;;20.60;1.40;;;21.85;68.74;95371.40;648143;216;31712;-71
2021/06/27 07:55:05;;;;;;;1.00;0.90;;;20.40;1.40;;;21.53;64.51;95376.72;648357;212;42153;-71
2021/06/27 07:57:46;;;;;;;1.50;1.07;;;20.50;1.40;;;21.89;64.66;95376.77;620482;222;32089;-71
2021/06/27 08:00:30;;;;;;;1.42;1.33;;;20.70;1.40;;;21.91;65.42;95372.14;646155;212;31545;-71
2021/06/27 08:03:12;;;;;;;2.45;2.25;;;20.80;1.40;;;22.48;65.45;95366.77;648532;212;31610;-70
2021/06/27 08:05:53;;;;;;;4.37;3.97;;;21.10;1.40;;;22.69;65.03;95372.05;647727;212;32155;-70
2021/06/27 08:08:38;;;;;;;1.23;1.12;;;21.30;1.40;;;22.75;63.49;95370.25;646076;212;31582;-71
2021/06/27 08:11:20;;;;;;;1.20;1.00;;;21.50;1.40;;;22.60;58.68;95367.06;646475;212;42766;-72
2021/06/27 08:14:02;;;;;;;1.17;1.00;;;21.40;1.40;;;22.72;60.95;95365.03;646282;212;32193;-71
2021/06/27 08:16:43;;;;;;;0.90;0.90;;;21.60;1.40;;;22.99;58.74;95360.64;644498;216;32086;-72
2021/06/27 08:19:25;;;;;;;1.65;1.20;;;21.90;1.40;;;22.88;61.16;95361.13;643805;216;31652;-72
2021/06/27 08:22:07;;;;;;;1.17;1.08;;;21.80;1.40;;;23.28;59.40;95354.47;647704;216;31612;-71
2021/06/27 08:24:48;;;;;;;2.60;1.10;;;22.20;1.40;;;23.24;59.79;95351.47;619793;226;31959;-71
2021/06/27 08:27:30;;;;;;;1.10;0.90;;;22.20;1.40;;;23.52;59.38;95352.41;648475;212;31620;-71
2021/06/27 08:30:18;;;;;;;1.10;1.00;;;22.40;1.40;;;23.63;56.36;95353.64;646399;216;31528;-72
2021/06/27 08:35:50;;;;;;;1.77;1.67;;;22.90;1.40;;;24.30;58.70;95347.19;645006;216;31585;-72
2021/06/27 08:38:32;;;;;;;2.70;2.42;;;23.00;1.40;;;24.34;54.71;95351.61;647307;216;31661;-72
2021/06/27 08:41:17;;;;;;;2.15;1.00;;;23.10;1.40;;;24.05;56.47;95352.50;647459;212;31738;-71
2021/06/27 08:43:58;;;;;;;0.85;0.85;;;22.80;1.40;;;23.86;59.03;95353.14;618795;222;33406;-72
2021/06/27 08:46:42;;;;;;;1.37;1.17;;;22.80;1.40;;;24.09;56.80;95345.36;646835;216;31748;-72
2021/06/27 08:49:30;;;;;;;1.60;0.90;;;23.00;1.40;;;24.76;57.04;95354.84;646093;212;31678;-72
2021/06/27 08:52:18;;;;;;;1.30;1.10;;;23.60;1.40;;;25.08;53.09;95347.00;647056;216;31543;-72
2021/06/27 08:55:07;;;;;;;1.70;1.15;;;23.70;1.40;;;24.91;52.81;95348.00;648723;216;31698;-72
2021/06/27 08:57:55;;;;;;;2.03;0.85;;;23.70;1.40;;;25.39;53.65;95347.43;648337;215;31621;-71
2021/06/27 09:00:38;;;;;;;1.10;1.00;;;24.00;1.40;;;25.15;52.15;95355.70;647024;212;34165;-71
2021/06/27 09:03:22;;;;;;;0.90;0.80;;;23.90;1.40;;;25.18;52.58;95350.75;646119;212;32050;-71
2021/06/27 09:06:10;;;;;;;0.90;0.80;;;23.90;1.40;;;25.77;52.83;95347.11;649887;216;35696;-72
2021/06/27 09:09:10;;;;;;;1.00;0.90;;;24.50;1.40;;;25.18;51.96;95350.42;648007;216;32121;-71
2021/06/27 09:12:04;;;;;;;1.10;1.00;;;23.70;1.40;;;25.01;50.71;95351.72;642758;217;31531;-72
2021/06/27 09:14:51;;;;;;;1.00;0.85;;;23.80;1.40;;;25.34;48.49;95346.47;646349;212;31482;-71
2021/06/27 09:17:36;;;;;;;1.02;0.80;;;24.00;1.40;;;25.75;53.47;95349.61;649869;216;31539;-72
2021/06/27 09:20:23;;;;;;;1.08;0.98;;;24.20;1.40;;;24.90;50.60;95348.19;646302;216;31507;-72
2021/06/27 09:23:07;;;;;;;1.20;0.90;;;23.40;1.40;;;24.42;50.15;95349.88;647134;216;31630;-71
2021/06/27 09:25:55;;;;;;;1.58;0.90;;;22.80;1.40;;;24.41;52.71;95352.01;621963;226;31919;-72
2021/06/27 09:28:44;;;;;;;0.88;0.88;;;22.90;1.40;;;24.36;51.53;95343.45;647851;213;31546;-71
2021/06/27 09:31:35;;;;;;;1.08;0.98;;;23.20;1.40;;;25.76;52.14;95344.08;646700;212;31515;-72
2021/06/27 09:35:55;;;;;;;1.07;0.97;;;26.50;1.40;;;28.10;49.00;95333.94;644017;217;31537;-72
2021/06/27 09:38:43;;;;;;;1.70;0.98;;;27.10;1.40;;;29.10;42.88;95335.13;647862;216;31518;-71
2021/06/27 09:41:30;;;;;;;1.00;0.80;;;27.10;1.40;;;29.06;44.00;95338.67;649538;213;31520;-71
2021/06/27 09:44:11;;;;;;;1.20;0.70;;;27.30;1.40;;;30.66;44.20;95341.30;648608;216;31658;-71
2021/06/27 09:46:52;;;;;;;0.90;0.82;;;28.30;1.40;;;31.67;38.20;95337.52;645926;212;31513;-72
2021/06/27 09:49:34;;;;;;;1.02;1.02;;;28.00;1.40;;;28.57;42.21;95346.59;646185;212;31537;-72
2021/06/27 09:52:33;;;;;;;0.90;0.90;;;26.20;1.40;;;30.00;43.23;95339.08;647887;212;31681;-73
2021/06/27 09:55:20;;;;;;;1.30;1.10;;;27.60;1.40;;;31.26;40.32;95334.51;646836;216;31517;-71
2021/06/27 09:58:14;;;;;;;0.80;0.70;;;27.60;1.40;;;30.12;41.29;95332.12;648928;216;31986;-72
2021/06/27 10:01:02;;;;;;;1.10;1.00;;;27.20;1.40;;;29.84;39.99;95338.29;650147;212;32446;-72
2021/06/27 10:03:51;;;;;;;1.10;0.90;;;26.70;1.40;;;31.32;39.45;95329.84;646878;212;31570;-71
2021/06/27 10:06:32;;;;;;;1.30;1.20;;;27.60;1.40;;;32.21;40.85;95326.20;650118;216;31559;-72
2021/06/27 10:09:18;;;;;;;2.40;1.40;;;28.10;1.40;;;34.11;39.18;95325.39;619570;222;31998;-72
2021/06/27 10:12:06;;;;;;;1.50;1.40;;;29.20;1.40;;;34.42;35.42;95333.16;647839;212;31540;-73
2021/06/27 10:14:55;;;;;;;1.30;1.08;;;28.90;1.40;;;33.99;35.37;95328.19;645514;212;32093;-72
2021/06/27 10:17:38;;;;;;;1.08;1.08;;;29.00;1.40;;;32.04;36.56;95333.12;648215;216;31635;-72
2021/06/27 10:20:20;;;;;;;1.20;1.10;;;27.60;1.40;;;32.34;36.52;95335.03;645620;212;32440;-72
2021/06/27 10:23:07;;;;;;;1.40;1.30;;;27.80;1.40;;;31.49;38.56;95330.32;646352;212;31625;-72
2021/06/27 10:25:51;;;;;;;1.50;1.40;;;27.20;1.40;;;32.26;37.53;95328.64;644060;216;32245;-72
2021/06/27 10:28:35;;;;;;;1.35;1.25;;;27.70;1.40;;;33.02;36.39;95326.52;619682;226;42551;-73
2021/06/27 10:31:16;;;;;;;1.42;1.33;;;27.90;1.40;;;33.00;35.05;95333.67;648823;215;42288;-73
2021/06/27 10:35:51;;;;;;;1.40;1.30;;;27.60;1.40;;;33.40;36.10;95324.89;647861;212;32096;-73
2021/06/27 10:38:40;;;;;;;1.25;1.15;;;28.60;1.40;;;31.22;35.60;95327.77;647400;216;42197;-72
2021/06/27 10:41:29;;;;;;;1.00;0.90;;;27.30;1.40;;;33.71;36.38;95316.92;649204;212;31566;-72
2021/06/27 10:44:10;;;;;;;1.12;1.12;;;28.70;1.40;;;32.46;36.15;95314.66;647261;216;42431;-72
2021/06/27 10:46:58;;;;;;;1.30;1.20;;;28.30;1.40;;;33.18;33.69;95313.44;648307;216;31662;-73
2021/06/27 10:54:28;;;;;;;3.00;2.55;;;30.10;1.40;;;35.85;34.78;95312.19;649243;216;31694;-73
2021/06/27 10:57:18;;;;;;;1.50;1.40;;;29.50;1.40;;;34.37;33.20;95322.16;648037;216;31765;-73
2021/06/27 11:00:00;;;;;;;1.40;1.30;;;28.60;1.40;;;33.85;33.97;95322.52;617218;222;32293;-73
2021/06/27 11:02:44;;;;;;;1.40;1.30;;;28.30;1.40;;;33.65;34.76;95317.08;650020;212;31567;-72
2021/06/27 11:05:36;;;;;;;1.85;1.20;;;28.50;1.40;;;33.86;32.48;95312.83;648288;216;32137;-73
2021/06/27 11:11:07;;;;;;;1.30;1.20;;;30.10;1.40;;;37.30;33.13;95302.27;647177;216;31701;-73
2021/06/27 11:14:14;;;;;;;1.60;1.40;;;30.40;1.40;;;40.31;29.41;95299.38;648644;216;31681;-74
2021/06/27 11:17:01;;;;;;;1.50;1.40;;;31.60;1.40;;;38.69;29.27;95296.25;648042;216;31551;-73
2021/06/27 11:19:52;;;;;;;1.60;1.50;;;30.70;1.40;;;39.65;29.19;95293.17;646632;216;31576;-73
2021/06/27 11:22:33;;;;;;;1.40;1.30;;;31.00;1.40;;;40.62;29.21;95283.77;644288;216;31758;-73
2021/06/27 11:25:35;;;;;;;1.15;1.15;;;32.10;1.40;;;41.51;27.92;95277.53;648968;216;31728;-73
2021/06/27 11:31:18;;;;;;;1.30;1.20;;;30.90;1.40;;;39.36;28.70;95284.72;649321;216;32330;-72
2021/06/27 11:35:55;;;;;;;1.50;1.30;;;30.90;1.40;;;35.51;31.07;95279.55;646802;212;31732;-73
2021/06/27 11:38:45;;;;;;;1.50;1.27;;;29.30;1.40;;;36.74;31.27;95279.44;646294;212;32294;-73
2021/06/27 11:41:35;;;;;;;1.50;1.40;;;29.40;1.40;;;38.10;30.48;95276.19;621577;222;32090;-74
2021/06/27 11:44:17;;;;;;;1.50;1.40;;;30.50;1.40;;;38.27;28.38;95274.38;646680;216;31539;-73
2021/06/27 11:46:59;;;;;;;1.55;1.30;;;30.50;1.40;;;41.34;26.84;95274.51;648134;216;32235;-73
2021/06/27 11:49:40;;;;;;;1.50;1.40;;;31.60;1.40;;;39.35;27.41;95274.29;645714;212;31683;-73
2021/06/27 11:52:28;;;;;;;1.20;1.10;;;31.30;1.40;;;39.22;27.86;95281.67;649048;216;31950;-73
2021/06/27 11:55:13;;;;;;;1.60;1.20;;;31.20;1.40;;;35.62;28.82;95273.74;646159;216;31560;-73
2021/06/27 11:57:57;;;;;;;2.40;1.50;;;29.40;1.40;;;38.92;29.50;95271.12;647858;212;32122;-73
2021/06/27 12:00:39;;;;;;;1.50;1.40;;;31.10;1.40;;;39.85;27.10;95267.37;646015;212;35985;-73
2021/06/27 12:03:23;;;;;;;1.45;1.35;;;31.60;1.40;;;40.88;29.42;95257.17;634017;221;31729;-73
2021/06/27 12:06:04;;;;;;;1.70;1.60;;;32.10;1.40;;;38.00;30.48;95265.13;645847;216;31605;-73
2021/06/27 12:08:46;;;;;;;1.80;1.50;;;30.80;1.40;;;39.44;27.42;95258.71;646870;212;31638;-73